Terminal Aerodrome Forecast
Issued by NWS

Home | Current Version | Previous Version | Text Only | Print | Product List | Glossary On
Versions: 1 2 3 4 5 6 7 8 9 10 11 12 13 14 15
000
FTUS43 KLSX 192300
TAFCPS
TAF
KCPS 192324Z 2000/2024 14005KT P6SM SCT060
     FM200200 14004KT P6SM SCT250
     FM201500 18007KT P6SM SCT050=

USA.gov is the U.S. government's official web portal to all federal, state and local government web resources and services.